KMWC/MWC METAR and TAF weather

Enter ICAO airport designator
Station Type Date Time Source
KMWC METAR 2020/07/15 00:45 UTC NOAA

KMWC 150045Z 15006KT 10SM SKC 26/16 A2998


Station Type Date Time Source
KMWC Decoded METAR 2020/07/15 00:45 UTC NOAA

Milwaukee / Timmerman, WI, United States (KMWC) 43-07N 088-02W
Jul 14, 2020 - 08:45 PM EDT / 2020.07.15 0045 UTC
Wind: from the SSE (150 degrees) at 7 MPH (6 KT):0
Visibility: 10 mile(s):0
Sky conditions: clear
Temperature: 78 F (26 C)
Dew Point: 60 F (16 C)
Relative Humidity: 54%
Pressure (altimeter): 29.98 in. Hg (1015 hPa)
ob: KMWC 150045Z 15006KT 10SM SKC 26/16 A2998
cycle: 1

Station Type Date Time Source
KMWC TAF UTC NOAA

Error!

Example: see airport list